Lingo, New Mexico
Current Conditions -  °F | °C
As of 5:58 AM on Friday 24 Oct 2014 (Local Time) from KCVS Reporting Station
Clear Clear  
Wind Chill: 56°   Ceiling: Unl
Heat Index: 56°   Visibility: 10mi
Dew Point: 53°   Wind: 9mph
Humidity: 88%   Direction: 280°W
Pressure: 30.17"   Gusts: NA
Location:  33.78°N, 103.12°W
Report Text: KCVS 241158Z AUTO 28008KT 10SM CLR 13/11 A3017 RMK AO2 SLP173 T01330114 10160 20133 55000 $
Loading
Personal Weather Stations






























Interactive Weather Map
Tropical Storm Tracking
New forecast layout! Learn more

10-Day Weather Forecast

Advertisements
Track Severe Weather on mobile